KGLS/GLS METAR and TAF weather

Enter ICAO airport designator
Station Type Date Time Source
KGLS METAR 2020/11/28 19:52 UTC NOAA

KGLS 281952Z 08011KT 3SM -RA BR BKN006 BKN080 OVC100 19/18 A3004 RMK AO2 SLP171 P0011 T01940178


Station Type Date Time Source
KGLS Decoded METAR 2020/11/28 19:52 UTC NOAA

SCHOLES FIELD, TX, United States (KGLS) 29-16N 094-52W 6M
Nov 28, 2020 - 02:52 PM EST / 2020.11.28 1952 UTC
Wind: from the E (080 degrees) at 13 MPH (11 KT):0
Visibility: 3 mile(s):0
Sky conditions: overcast
Weather: light rain; mist
Precipitation last hour: 0.11 inches
Temperature: 66.9 F (19.4 C)
Dew Point: 64.0 F (17.8 C)
Relative Humidity: 90%
Pressure (altimeter): 30.04 in. Hg (1017 hPa)
ob: KGLS 281952Z 08011KT 3SM -RA BR BKN006 BKN080 OVC100 19/18 A3004 RMK AO2 SLP171 P0011 T01940178
cycle: 20

Station Type Date Time Source
KGLS TAF 2020/11/28 18:31 UTC NOAA

TAF KGLS 281725Z 2818/2918 06013G24KT 4SM SHRA BR BKN017 OVC100
FM290400 06018KT 6SM -SHRA BR VCTS OVC009CB
FM291100 35015KT 5SM SHRA VCTS OVC007CB

Example: see airport list